FD469 YHBA-YBBN
Flight info
| Callsign | FD469 |
|---|---|
| Flight time | N/A |
| Altitude | 16000 |
| Route | HAAVI W699 SOSTU/N0302F150 V372 OTLEB V307 BN |
| Aircraft | B350/L-SBGRW/S |
Departure
| Time | 2026-04-19 11:51 |
|---|---|
| Airport | Hervey Bay Airport (YHBA) |
Arrival
| Time | N/A |
|---|---|
| Airport | Brisbane International Airport (YBBN) |
| Time | Latitude | Longitude | Altitude | Speed | Heading |
|---|---|---|---|---|---|
| 2026-04-19 11:48 | -25.32158 | 152.88567 | 54 ft | 6 kts | 210° |
| 2026-04-19 11:49 | -25.32179 | 152.88554 | 56 ft | 5 kts | 208° |
| 2026-04-19 11:49 | -25.32208 | 152.88537 | 55 ft | 6 kts | 208° |
| 2026-04-19 11:49 | -25.32230 | 152.88524 | 53 ft | 1 kts | 212° |
| 2026-04-19 11:49 | -25.32233 | 152.88520 | 55 ft | 3 kts | 244° |
| 2026-04-19 11:50 | -25.32216 | 152.88477 | 53 ft | 26 kts | 301° |
| 2026-04-19 11:50 | -25.31976 | 152.87994 | 53 ft | 109 kts | 299° |
| 2026-04-19 11:50 | -25.31537 | 152.87115 | 200 ft | 144 kts | 300° |
| 2026-04-19 11:50 | -25.30990 | 152.86087 | 508 ft | 161 kts | 303° |
| 2026-04-19 11:51 | -25.30351 | 152.85047 | 901 ft | 169 kts | 308° |
| 2026-04-19 11:51 | -25.29538 | 152.84028 | 1153 ft | 180 kts | 327° |
| 2026-04-19 11:51 | -25.28366 | 152.83679 | 1501 ft | 176 kts | 13° |
| 2026-04-19 11:51 | -25.27361 | 152.84335 | 1982 ft | 168 kts | 58° |
| 2026-04-19 11:52 | -25.27106 | 152.85547 | 2438 ft | 166 kts | 101° |
| 2026-04-19 11:52 | -25.27732 | 152.86602 | 2864 ft | 172 kts | 144° |
| 2026-04-19 11:52 | -25.28813 | 152.87200 | 3292 ft | 176 kts | 160° |
| 2026-04-19 11:52 | -25.29958 | 152.87635 | 3749 ft | 175 kts | 159° |
| 2026-04-19 11:53 | -25.31101 | 152.88104 | 4211 ft | 175 kts | 159° |
| 2026-04-19 11:53 | -25.32246 | 152.88570 | 4668 ft | 175 kts | 166° |
| 2026-04-19 11:53 | -25.33430 | 152.88518 | 5135 ft | 174 kts | 204° |
| 2026-04-19 11:53 | -25.34376 | 152.87673 | 5590 ft | 177 kts | 222° |
| 2026-04-19 11:54 | -25.35269 | 152.86726 | 6075 ft | 177 kts | 219° |
| 2026-04-19 11:54 | -25.36198 | 152.85830 | 6554 ft | 177 kts | 217° |
| 2026-04-19 11:54 | -25.37132 | 152.84951 | 6980 ft | 179 kts | 217° |
| 2026-04-19 11:54 | -25.38086 | 152.84055 | 7416 ft | 181 kts | 217° |
| 2026-04-19 11:55 | -25.39048 | 152.83152 | 7846 ft | 182 kts | 217° |
| 2026-04-19 11:55 | -25.40019 | 152.82240 | 8276 ft | 184 kts | 217° |
| 2026-04-19 11:55 | -25.40995 | 152.81323 | 8707 ft | 186 kts | 217° |
| 2026-04-19 11:55 | -25.41985 | 152.80392 | 9152 ft | 187 kts | 217° |
| 2026-04-19 11:56 | -25.42972 | 152.79465 | 9585 ft | 189 kts | 217° |
| 2026-04-19 11:56 | -25.43982 | 152.78516 | 10020 ft | 191 kts | 217° |
| 2026-04-19 11:56 | -25.44999 | 152.77559 | 10421 ft | 192 kts | 217° |
| 2026-04-19 11:56 | -25.46023 | 152.76596 | 10833 ft | 193 kts | 218° |
| 2026-04-19 11:57 | -25.47048 | 152.75630 | 11241 ft | 193 kts | 218° |
| 2026-04-19 11:57 | -25.48066 | 152.74673 | 11649 ft | 194 kts | 218° |
| 2026-04-19 11:57 | -25.49095 | 152.73704 | 12061 ft | 195 kts | 218° |
| 2026-04-19 11:57 | -25.50132 | 152.72728 | 12470 ft | 196 kts | 219° |
| 2026-04-19 11:58 | -25.51172 | 152.71752 | 12878 ft | 196 kts | 217° |
| 2026-04-19 11:58 | -25.52368 | 152.71037 | 13285 ft | 196 kts | 197° |
| 2026-04-19 11:58 | -25.53619 | 152.70429 | 13675 ft | 198 kts | 215° |
| 2026-04-19 11:58 | -25.54575 | 152.69331 | 14074 ft | 200 kts | 236° |
| 2026-04-19 11:59 | -25.55091 | 152.67894 | 14431 ft | 204 kts | 256° |
| 2026-04-19 11:59 | -25.55526 | 152.66411 | 14790 ft | 201 kts | 239° |
| 2026-04-19 11:59 | -25.56406 | 152.65244 | 15189 ft | 201 kts | 218° |
| 2026-04-19 11:59 | -25.57646 | 152.64529 | 15678 ft | 203 kts | 198° |
| 2026-04-19 12:00 | -25.59073 | 152.64363 | 16104 ft | 212 kts | 181° |
| 2026-04-19 12:00 | -25.60617 | 152.64449 | 16136 ft | 232 kts | 181° |
| 2026-04-19 12:00 | -25.62272 | 152.64523 | 16147 ft | 247 kts | 182° |
| 2026-04-19 12:00 | -25.64046 | 152.64590 | 16141 ft | 259 kts | 182° |
| 2026-04-19 12:01 | -25.65864 | 152.64649 | 16148 ft | 267 kts | 182° |
| 2026-04-19 12:01 | -25.67741 | 152.64701 | 16139 ft | 273 kts | 182° |
| 2026-04-19 12:01 | -25.69660 | 152.64748 | 16149 ft | 277 kts | 182° |
| 2026-04-19 12:01 | -25.71593 | 152.64787 | 16139 ft | 280 kts | 182° |
| 2026-04-19 12:02 | -25.73564 | 152.64822 | 16141 ft | 283 kts | 182° |
| 2026-04-19 12:02 | -25.75516 | 152.64850 | 16143 ft | 284 kts | 182° |
| 2026-04-19 12:02 | -25.77503 | 152.64872 | 16140 ft | 285 kts | 183° |
| 2026-04-19 12:02 | -25.79491 | 152.64889 | 16140 ft | 286 kts | 183° |
| 2026-04-19 12:03 | -25.82500 | 152.64905 | 16142 ft | 287 kts | 183° |
| 2026-04-19 12:03 | -25.86508 | 152.64906 | 16141 ft | 288 kts | 183° |
| 2026-04-19 12:03 | -25.90532 | 152.64885 | 16142 ft | 288 kts | 184° |
| 2026-04-19 12:03 | -25.94506 | 152.64844 | 16144 ft | 288 kts | 184° |
| 2026-04-19 12:04 | -25.98483 | 152.64783 | 16143 ft | 287 kts | 184° |
| 2026-04-19 12:04 | -26.02483 | 152.64704 | 16140 ft | 287 kts | 184° |
| 2026-04-19 12:04 | -26.06486 | 152.64603 | 16141 ft | 287 kts | 185° |
| 2026-04-19 12:04 | -26.10486 | 152.64481 | 16138 ft | 287 kts | 185° |
| 2026-04-19 12:05 | -26.14482 | 152.64339 | 16146 ft | 287 kts | 185° |
| 2026-04-19 12:05 | -26.18481 | 152.64174 | 16141 ft | 286 kts | 185° |
| 2026-04-19 12:05 | -26.22416 | 152.63993 | 16147 ft | 286 kts | 186° |
| 2026-04-19 12:05 | -26.26402 | 152.63788 | 16153 ft | 286 kts | 186° |
| 2026-04-19 12:06 | -26.29922 | 152.63590 | 16148 ft | 286 kts | 186° |
| 2026-04-19 12:06 | -26.31911 | 152.63477 | 16148 ft | 285 kts | 185° |
| 2026-04-19 12:06 | -26.33875 | 152.63679 | 16149 ft | 290 kts | 171° |
| 2026-04-19 12:06 | -26.35848 | 152.64106 | 16152 ft | 286 kts | 179° |
| 2026-04-19 12:07 | -26.37821 | 152.64189 | 16150 ft | 285 kts | 182° |
| 2026-04-19 12:07 | -26.39811 | 152.64235 | 16151 ft | 286 kts | 180° |
| 2026-04-19 12:07 | -26.41800 | 152.64430 | 16152 ft | 287 kts | 177° |
| 2026-04-19 12:07 | -26.43787 | 152.64680 | 16154 ft | 287 kts | 178° |
| 2026-04-19 12:08 | -26.45778 | 152.64883 | 16156 ft | 287 kts | 179° |
| 2026-04-19 12:08 | -26.47753 | 152.65065 | 16149 ft | 287 kts | 179° |
| 2026-04-19 12:08 | -26.49744 | 152.65264 | 16154 ft | 287 kts | 178° |
| 2026-04-19 12:08 | -26.51738 | 152.65470 | 16153 ft | 287 kts | 178° |
| 2026-04-19 12:09 | -26.53745 | 152.65671 | 16153 ft | 288 kts | 179° |
| 2026-04-19 12:09 | -26.55723 | 152.65870 | 16153 ft | 287 kts | 178° |
| 2026-04-19 12:09 | -26.57725 | 152.66072 | 16153 ft | 288 kts | 178° |
| 2026-04-19 12:09 | -26.59696 | 152.66270 | 16151 ft | 287 kts | 178° |
| 2026-04-19 12:10 | -26.61690 | 152.66473 | 16141 ft | 288 kts | 178° |
| 2026-04-19 12:10 | -26.63712 | 152.66715 | 15929 ft | 293 kts | 173° |
| 2026-04-19 12:10 | -26.65666 | 152.67406 | 15651 ft | 298 kts | 159° |
| 2026-04-19 12:10 | -26.67456 | 152.68620 | 15336 ft | 302 kts | 148° |
| 2026-04-19 12:11 | -26.69143 | 152.70035 | 15025 ft | 302 kts | 147° |
| 2026-04-19 12:11 | -26.70831 | 152.71379 | 14721 ft | 300 kts | 150° |
| 2026-04-19 12:11 | -26.72600 | 152.72636 | 14422 ft | 299 kts | 151° |
| 2026-04-19 12:11 | -26.74353 | 152.73908 | 14122 ft | 299 kts | 150° |
| 2026-04-19 12:12 | -26.76078 | 152.75211 | 13767 ft | 298 kts | 149° |
| 2026-04-19 12:12 | -26.77773 | 152.76476 | 13376 ft | 288 kts | 150° |
| 2026-04-19 12:12 | -26.79405 | 152.77684 | 12993 ft | 282 kts | 150° |
| 2026-04-19 12:12 | -26.81038 | 152.78886 | 12608 ft | 277 kts | 149° |
| 2026-04-19 12:13 | -26.82593 | 152.80033 | 12242 ft | 273 kts | 149° |
| 2026-04-19 12:13 | -26.84151 | 152.81187 | 11870 ft | 270 kts | 149° |
| 2026-04-19 12:13 | -26.85712 | 152.82340 | 11506 ft | 268 kts | 149° |
| 2026-04-19 12:13 | -26.87263 | 152.83486 | 11140 ft | 266 kts | 149° |
| 2026-04-19 12:14 | -26.88816 | 152.84633 | 10775 ft | 266 kts | 149° |
| 2026-04-19 12:14 | -26.90422 | 152.85624 | 10426 ft | 265 kts | 154° |
| 2026-04-19 12:14 | -26.92058 | 152.86579 | 10071 ft | 265 kts | 151° |
| 2026-04-19 12:14 | -26.93465 | 152.87901 | 9687 ft | 267 kts | 133° |
| 2026-04-19 12:15 | -26.94663 | 152.89496 | 9300 ft | 266 kts | 133° |
| 2026-04-19 12:15 | -26.95883 | 152.91041 | 8911 ft | 262 kts | 134° |
| 2026-04-19 12:15 | -26.97065 | 152.92553 | 8541 ft | 260 kts | 133° |
| 2026-04-19 12:15 | -26.98242 | 152.94084 | 8165 ft | 259 kts | 133° |
| 2026-04-19 12:16 | -26.99421 | 152.95609 | 7793 ft | 257 kts | 134° |
| 2026-04-19 12:16 | -27.00596 | 152.97126 | 7428 ft | 257 kts | 134° |
| 2026-04-19 12:16 | -27.01765 | 152.98634 | 7059 ft | 254 kts | 134° |
| 2026-04-19 12:16 | -27.02851 | 153.00171 | 6679 ft | 253 kts | 129° |
| 2026-04-19 12:17 | -27.03888 | 153.01763 | 6312 ft | 250 kts | 130° |
| 2026-04-19 12:17 | -27.04915 | 153.03301 | 5972 ft | 246 kts | 129° |
| 2026-04-19 12:17 | -27.05938 | 153.04832 | 5673 ft | 242 kts | 129° |
| 2026-04-19 12:17 | -27.06940 | 153.06340 | 5375 ft | 240 kts | 128° |
| 2026-04-19 12:18 | -27.07933 | 153.07839 | 5128 ft | 237 kts | 128° |